createdAt,value
2023-01-26T00:03:00.285Z,9.14
2023-01-26T00:07:13.989Z,9.52
2023-01-26T00:11:30.770Z,9.91
2023-01-26T00:20:10.220Z,9.64
2023-01-26T00:24:24.369Z,10.08
2023-01-26T00:28:37.113Z,9.85
2023-01-26T00:32:50.526Z,9.48
2023-01-26T00:37:03.636Z,9.12
2023-01-26T00:41:35.866Z,8.69
2023-01-26T00:45:48.370Z,8.57
2023-01-26T00:50:01.730Z,8.29
2023-01-26T00:54:15.818Z,8.04
2023-01-26T00:58:28.878Z,8.16
2023-01-26T01:02:41.857Z,8.17
2023-01-26T01:06:54.210Z,8.16
2023-01-26T01:11:09.200Z,8.12
2023-01-26T01:15:27.874Z,8.09
2023-01-26T01:19:40.161Z,8.07
2023-01-26T01:23:52.697Z,7.93
2023-01-26T01:28:07.879Z,8.05
2023-01-26T01:32:20.979Z,8.20
2023-01-26T01:36:34.483Z,8.22
2023-01-26T01:40:47.925Z,8.10
2023-01-26T01:45:38.512Z,8.17
2023-01-26T01:49:53.545Z,8.04
2023-01-26T01:54:11.983Z,8.07
2023-01-26T01:58:26.068Z,8.17
2023-01-26T02:02:38.842Z,8.08
2023-01-26T02:06:56.626Z,8.16
2023-01-26T02:11:45.887Z,8.19
2023-01-26T02:16:01.765Z,8.22
2023-01-26T02:20:28.808Z,8.18
2023-01-26T02:24:41.863Z,8.31
2023-01-26T02:28:58.338Z,8.24
2023-01-26T02:33:26.372Z,8.23
2023-01-26T02:37:42.303Z,9.38
2023-01-26T02:42:13.818Z,9.53
2023-01-26T02:46:26.340Z,9.96
2023-01-26T02:50:41.903Z,10.08
2023-01-26T02:55:14.673Z,9.96
2023-01-26T02:59:28.488Z,9.92
2023-01-26T03:03:45.316Z,9.87
2023-01-26T03:07:59.437Z,10.09
2023-01-26T03:12:17.434Z,10.33
2023-01-26T03:16:29.869Z,10.09
2023-01-26T03:21:04.058Z,9.98
2023-01-26T03:25:36.165Z,9.68
2023-01-26T03:29:50.716Z,9.63
2023-01-26T03:34:04.802Z,9.78
2023-01-26T03:38:17.463Z,9.70
2023-01-26T03:42:52.743Z,9.44
2023-01-26T03:47:25.104Z,9.15
2023-01-26T03:51:56.308Z,9.42
2023-01-26T03:56:24.929Z,9.49
2023-01-26T04:00:41.297Z,9.91
2023-01-26T04:05:12.655Z,10.01
2023-01-26T04:09:29.227Z,10.13
2023-01-26T04:14:01.206Z,10.02
2023-01-26T04:18:35.651Z,10.38
2023-01-26T04:22:48.029Z,10.40
2023-01-26T04:27:02.209Z,10.41
2023-01-26T04:31:20.232Z,10.39
2023-01-26T04:35:35.146Z,10.48
2023-01-26T04:39:47.689Z,10.55
2023-01-26T04:44:00.394Z,10.52
2023-01-26T04:48:12.908Z,10.43
2023-01-26T04:52:25.542Z,10.33
2023-01-26T04:56:37.973Z,10.36
2023-01-26T05:00:54.919Z,10.39
2023-01-26T05:05:07.809Z,10.33
2023-01-26T05:09:20.518Z,10.45
2023-01-26T05:13:40.058Z,10.34
2023-01-26T05:18:08.308Z,10.28
2023-01-26T05:22:31.519Z,10.25
2023-01-26T05:27:20.912Z,10.39
2023-01-26T05:31:42.047Z,10.25
2023-01-26T05:36:06.376Z,10.25
2023-01-26T05:40:22.154Z,10.43
2023-01-26T05:44:35.454Z,10.68
2023-01-26T05:49:10.435Z,10.62
2023-01-26T05:53:24.484Z,10.65
2023-01-26T05:57:38.363Z,10.64
2023-01-26T06:01:53.052Z,10.46
2023-01-26T06:06:08.415Z,10.27
2023-01-26T06:10:31.361Z,10.20
2023-01-26T06:15:07.979Z,10.32
2023-01-26T06:19:27.489Z,10.27
2023-01-26T06:23:43.587Z,10.24
2023-01-26T06:28:01.975Z,10.20
2023-01-26T06:32:15.313Z,10.22
2023-01-26T06:36:29.941Z,10.23
2023-01-26T06:40:43.585Z,10.15
2023-01-26T06:44:57.778Z,10.20
2023-01-26T06:49:10.877Z,10.33
2023-01-26T06:53:34.172Z,10.33
2023-01-26T06:58:07.916Z,10.24
2023-01-26T07:02:22.160Z,9.82
2023-01-26T07:06:34.604Z,9.62
2023-01-26T07:10:47.000Z,9.83
2023-01-26T07:14:59.376Z,9.25
2023-01-26T07:19:12.356Z,8.81
2023-01-26T07:23:24.638Z,8.96
2023-01-26T07:27:37.017Z,10.13
2023-01-26T07:31:49.599Z,10.46
2023-01-26T07:36:08.763Z,10.80
2023-01-26T07:40:26.224Z,10.98
2023-01-26T07:44:38.612Z,11.05
2023-01-26T07:48:51.457Z,11.27
2023-01-26T07:53:03.925Z,11.18
2023-01-26T07:57:16.426Z,11.14
2023-01-26T08:01:28.826Z,11.36
2023-01-26T08:05:41.203Z,11.45
2023-01-26T08:09:54.603Z,11.43
2023-01-26T08:14:06.925Z,11.44
2023-01-26T08:18:19.468Z,11.40
2023-01-26T08:22:31.874Z,11.37
2023-01-26T08:26:44.375Z,11.28
2023-01-26T08:30:57.474Z,11.17
2023-01-26T08:35:10.464Z,10.84
2023-01-26T08:39:22.771Z,10.64
2023-01-26T08:43:35.580Z,10.61
2023-01-26T08:47:51.693Z,10.12
2023-01-26T08:52:04.416Z,10.01
2023-01-26T08:56:16.799Z,10.03
2023-01-26T09:00:29.637Z,10.30
2023-01-26T09:04:41.895Z,10.08
2023-01-26T09:08:54.390Z,10.08
2023-01-26T09:13:07.101Z,10.29
2023-01-26T09:17:19.588Z,10.31
2023-01-26T09:21:32.102Z,11.13
2023-01-26T09:25:45.062Z,11.56
2023-01-26T09:29:57.562Z,11.36
2023-01-26T09:34:09.987Z,11.59
2023-01-26T09:38:22.289Z,11.37
2023-01-26T09:42:46.695Z,10.88
2023-01-26T09:47:12.595Z,10.78
2023-01-26T09:51:35.782Z,10.81
2023-01-26T09:55:49.613Z,10.97
2023-01-26T10:00:23.120Z,11.91
2023-01-26T10:04:40.475Z,12.19
2023-01-26T10:08:54.942Z,12.21
2023-01-26T10:13:13.384Z,12.20
2023-01-26T10:17:35.581Z,11.97
2023-01-26T10:21:51.149Z,11.91
2023-01-26T10:26:24.255Z,11.88
2023-01-26T10:30:36.754Z,11.78
2023-01-26T10:34:51.613Z,12.10
2023-01-26T10:39:14.073Z,12.37
2023-01-26T10:43:28.597Z,12.39
2023-01-26T10:47:40.821Z,12.61
2023-01-26T10:52:23.046Z,12.67
2023-01-26T10:56:38.228Z,12.68
2023-01-26T11:00:57.077Z,12.91
2023-01-26T11:05:09.472Z,12.52
2023-01-26T11:09:29.651Z,12.58
2023-01-26T11:13:41.870Z,12.63
2023-01-26T11:18:04.768Z,12.79
2023-01-26T11:22:22.612Z,13.33
2023-01-26T11:26:59.621Z,13.15
2023-01-26T11:31:30.772Z,12.88
2023-01-26T11:35:52.015Z,12.56
2023-01-26T11:40:35.427Z,12.60
2023-01-26T11:45:07.926Z,13.06
2023-01-26T11:49:53.234Z,12.89
2023-01-26T11:54:42.277Z,13.42
2023-01-26T11:59:06.459Z,13.27
2023-01-26T12:03:26.382Z,14.22
2023-01-26T12:07:55.514Z,13.58
2023-01-26T12:12:20.693Z,13.80
2023-01-26T12:17:15.672Z,14.31
2023-01-26T12:21:36.175Z,14.47
2023-01-26T12:25:54.827Z,15.10
2023-01-26T12:30:35.956Z,14.58
2023-01-26T12:34:53.404Z,14.61
2023-01-26T12:39:38.545Z,13.50
2023-01-26T12:44:20.045Z,13.40
2023-01-26T12:49:04.350Z,12.88
2023-01-26T12:53:19.493Z,12.92
2023-01-26T12:57:46.276Z,12.79
2023-01-26T13:01:59.114Z,12.62
2023-01-26T13:06:14.144Z,12.50
2023-01-26T13:10:29.648Z,12.68
2023-01-26T13:14:47.764Z,12.65
2023-01-26T13:19:05.084Z,12.33
2023-01-26T13:23:29.503Z,12.73
2023-01-26T13:27:46.424Z,11.92
2023-01-26T13:32:02.376Z,11.11
2023-01-26T13:36:19.739Z,10.84
2023-01-26T13:40:34.363Z,10.83
2023-01-26T13:45:06.512Z,11.07
2023-01-26T13:49:28.089Z,10.67
2023-01-26T13:53:45.732Z,10.99
2023-01-26T13:58:30.044Z,10.93
2023-01-26T14:02:49.958Z,10.51
2023-01-26T14:07:13.012Z,10.43
2023-01-26T14:11:28.861Z,10.51
2023-01-26T14:15:41.462Z,10.17
2023-01-26T14:19:53.832Z,10.01
2023-01-26T14:24:09.595Z,10.47
2023-01-26T14:28:25.653Z,10.37
2023-01-26T14:32:38.002Z,10.17
2023-01-26T14:37:06.327Z,10.34
2023-01-26T14:41:31.949Z,9.96
2023-01-26T14:45:57.132Z,9.73
2023-01-26T14:50:23.543Z,10.26
2023-01-26T14:54:40.044Z,10.31
2023-01-26T14:58:54.418Z,9.97
2023-01-26T15:03:15.256Z,10.29
2023-01-26T15:07:37.463Z,10.43
2023-01-26T15:12:17.139Z,10.26
2023-01-26T15:16:29.589Z,10.61
2023-01-26T15:20:49.176Z,10.69
2023-01-26T15:25:19.989Z,10.43
2023-01-26T15:29:36.624Z,9.91
2023-01-26T15:33:54.019Z,10.19
2023-01-26T15:38:12.439Z,10.16
2023-01-26T15:42:29.042Z,9.76
2023-01-26T15:46:41.410Z,9.50
2023-01-26T15:50:53.939Z,9.83
2023-01-26T15:55:27.926Z,9.85
2023-01-26T15:59:41.020Z,9.58
2023-01-26T16:03:53.965Z,9.10
2023-01-26T16:08:06.511Z,9.66
2023-01-26T16:12:31.271Z,9.54
2023-01-26T16:16:44.803Z,8.97
2023-01-26T16:20:57.321Z,8.78
2023-01-26T16:25:26.165Z,9.15
2023-01-26T16:29:38.510Z,8.71
2023-01-26T16:33:52.043Z,8.58
2023-01-26T16:38:05.477Z,8.44
2023-01-26T16:42:21.524Z,8.61
2023-01-26T16:46:33.993Z,8.44
2023-01-26T16:50:46.536Z,8.28
2023-01-26T16:54:59.174Z,8.25
2023-01-26T16:59:11.570Z,8.13
2023-01-26T17:03:24.457Z,8.24
2023-01-26T17:07:37.791Z,8.36
2023-01-26T17:11:50.320Z,8.22
2023-01-26T17:16:02.834Z,8.14
2023-01-26T17:20:19.122Z,8.08
2023-01-26T17:24:38.640Z,8.03
2023-01-26T17:28:56.225Z,7.68
2023-01-26T17:33:08.633Z,7.72
2023-01-26T17:37:22.108Z,7.92
2023-01-26T17:41:34.531Z,7.71
2023-01-26T17:45:46.971Z,8.05
2023-01-26T17:49:59.761Z,7.96
2023-01-26T17:54:12.055Z,7.71
2023-01-26T17:58:24.379Z,7.65
2023-01-26T18:02:38.024Z,7.51
2023-01-26T18:06:50.661Z,7.72
2023-01-26T18:11:05.539Z,8.00
2023-01-26T18:15:17.770Z,8.10
2023-01-26T18:19:30.132Z,7.65
2023-01-26T18:23:48.136Z,7.30
2023-01-26T18:28:00.698Z,7.70
2023-01-26T18:32:13.197Z,7.56
2023-01-26T18:36:26.287Z,7.77
2023-01-26T18:40:40.234Z,7.95
2023-01-26T18:45:00.945Z,8.05
2023-01-26T18:49:15.637Z,8.17
2023-01-26T18:53:29.428Z,8.33
2023-01-26T18:57:41.951Z,8.50
2023-01-26T19:01:55.686Z,8.58
2023-01-26T19:06:09.426Z,8.67
2023-01-26T19:10:21.793Z,8.69
2023-01-26T19:14:34.136Z,8.71
2023-01-26T19:18:46.591Z,8.64
2023-01-26T19:22:59.039Z,8.58
2023-01-26T19:27:11.359Z,8.51
2023-01-26T19:31:26.015Z,8.46
2023-01-26T19:35:39.639Z,8.38
2023-01-26T19:39:52.514Z,8.36
2023-01-26T19:44:05.418Z,8.32
2023-01-26T19:48:19.947Z,8.40
2023-01-26T19:52:32.286Z,8.53
2023-01-26T19:56:45.393Z,8.70
2023-01-26T20:00:59.788Z,8.74
2023-01-26T20:05:12.474Z,8.53
2023-01-26T20:09:24.972Z,8.50
2023-01-26T20:13:38.105Z,8.47
2023-01-26T20:17:53.048Z,8.51
2023-01-26T20:22:07.590Z,8.35
2023-01-26T20:26:20.378Z,8.00
2023-01-26T20:30:34.043Z,7.69
2023-01-26T20:34:47.946Z,7.39
2023-01-26T20:39:00.657Z,7.36
2023-01-26T20:43:13.035Z,8.18
2023-01-26T20:47:26.400Z,7.59
2023-01-26T20:51:42.725Z,7.59
2023-01-26T20:55:59.771Z,7.87
2023-01-26T21:00:12.995Z,7.85
2023-01-26T21:04:27.325Z,7.85
2023-01-26T21:08:40.484Z,8.05
2023-01-26T21:12:53.106Z,7.65
2023-01-26T21:17:07.810Z,7.96
2023-01-26T21:21:23.357Z,8.28
2023-01-26T21:25:35.768Z,8.27
2023-01-26T21:29:48.022Z,8.33
2023-01-26T21:34:01.259Z,8.06
2023-01-26T21:38:13.544Z,8.27
2023-01-26T21:42:26.047Z,7.93
2023-01-26T21:46:39.022Z,7.79
2023-01-26T21:51:13.085Z,7.35
2023-01-26T21:55:25.413Z,7.77
2023-01-26T21:59:37.824Z,7.98
2023-01-26T22:03:50.250Z,7.79
2023-01-26T22:08:02.567Z,7.47
2023-01-26T22:12:14.976Z,7.47
2023-01-26T22:16:29.261Z,7.35
2023-01-26T22:20:43.141Z,6.94
2023-01-26T22:24:55.607Z,7.10
2023-01-26T22:29:08.472Z,6.97
2023-01-26T22:33:20.797Z,6.79
2023-01-26T22:37:33.149Z,7.47
2023-01-26T22:41:46.036Z,7.51
2023-01-26T22:46:06.874Z,6.88
2023-01-26T22:50:19.276Z,7.65
2023-01-26T22:54:31.629Z,7.87
2023-01-26T22:58:57.008Z,7.65
2023-01-26T23:03:10.253Z,7.74
2023-01-26T23:07:24.679Z,7.78
2023-01-26T23:11:37.280Z,7.82
2023-01-26T23:15:50.769Z,7.68
2023-01-26T23:20:03.082Z,7.65
2023-01-26T23:24:15.657Z,7.57
2023-01-26T23:28:46.435Z,7.51
2023-01-26T23:32:58.821Z,7.49
2023-01-26T23:37:11.273Z,7.38
2023-01-26T23:41:24.163Z,7.36
2023-01-26T23:45:36.834Z,7.31
2023-01-26T23:49:58.142Z,7.45
2023-01-26T23:54:12.539Z,7.49
2023-01-26T23:58:25.213Z,7.43
